sensor_id;sensor_type;location;lat;lon;timestamp;temperature;humidity
54930;DHT22;40833;53.238;6.576;2023-09-19T00:01:08;14.00;99.90
54930;DHT22;40833;53.238;6.576;2023-09-19T00:03:34;14.00;99.90
54930;DHT22;40833;53.238;6.576;2023-09-19T00:06:03;14.00;99.90
54930;DHT22;40833;53.238;6.576;2023-09-19T00:08:33;13.90;99.90
54930;DHT22;40833;53.238;6.576;2023-09-19T00:11:00;13.90;99.90
54930;DHT22;40833;53.238;6.576;2023-09-19T00:13:32;13.90;99.90
54930;DHT22;40833;53.238;6.576;2023-09-19T00:15:59;13.90;99.90
54930;DHT22;40833;53.238;6.576;2023-09-19T00:18:25;13.90;99.90
54930;DHT22;40833;53.238;6.576;2023-09-19T00:20:58;13.80;99.90
54930;DHT22;40833;53.238;6.576;2023-09-19T00:23:24;13.80;99.90
54930;DHT22;40833;53.238;6.576;2023-09-19T00:25:50;13.80;99.90
54930;DHT22;40833;53.238;6.576;2023-09-19T00:28:17;13.90;99.90
54930;DHT22;40833;53.238;6.576;2023-09-19T00:30:44;13.90;99.90
54930;DHT22;40833;53.238;6.576;2023-09-19T00:33:11;14.00;99.90
54930;DHT22;40833;53.238;6.576;2023-09-19T00:35:50;14.00;99.90
54930;DHT22;40833;53.238;6.576;2023-09-19T00:38:16;14.00;99.90
54930;DHT22;40833;53.238;6.576;2023-09-19T00:40:46;14.00;99.90
54930;DHT22;40833;53.238;6.576;2023-09-19T00:43:12;14.00;99.90
54930;DHT22;40833;53.238;6.576;2023-09-19T00:45:38;14.00;99.90
54930;DHT22;40833;53.238;6.576;2023-09-19T00:48:04;14.00;99.90
54930;DHT22;40833;53.238;6.576;2023-09-19T00:50:35;13.90;99.90
54930;DHT22;40833;53.238;6.576;2023-09-19T00:53:02;13.90;99.90
54930;DHT22;40833;53.238;6.576;2023-09-19T00:55:34;13.80;99.90
54930;DHT22;40833;53.238;6.576;2023-09-19T00:58:00;13.80;99.90
54930;DHT22;40833;53.238;6.576;2023-09-19T01:00:26;13.70;99.90
54930;DHT22;40833;53.238;6.576;2023-09-19T01:02:52;13.70;99.90
54930;DHT22;40833;53.238;6.576;2023-09-19T01:05:19;13.70;99.90
54930;DHT22;40833;53.238;6.576;2023-09-19T01:07:45;13.70;99.90
54930;DHT22;40833;53.238;6.576;2023-09-19T01:10:16;13.60;99.90
54930;DHT22;40833;53.238;6.576;2023-09-19T01:13:09;13.60;99.90
54930;DHT22;40833;53.238;6.576;2023-09-19T01:15:55;13.60;99.90
54930;DHT22;40833;53.238;6.576;2023-09-19T01:29:38;13.30;99.90
54930;DHT22;40833;53.238;6.576;2023-09-19T01:32:06;13.30;99.90
54930;DHT22;40833;53.238;6.576;2023-09-19T01:35:04;13.30;99.90
54930;DHT22;40833;53.238;6.576;2023-09-19T01:37:30;13.20;99.90
54930;DHT22;40833;53.238;6.576;2023-09-19T01:40:04;13.20;99.90
54930;DHT22;40833;53.238;6.576;2023-09-19T01:45:55;13.10;99.90
54930;DHT22;40833;53.238;6.576;2023-09-19T01:51:22;13.00;99.90
54930;DHT22;40833;53.238;6.576;2023-09-19T01:53:57;13.00;99.90
54930;DHT22;40833;53.238;6.576;2023-09-19T01:56:52;13.00;99.90
54930;DHT22;40833;53.238;6.576;2023-09-19T01:59:28;13.00;99.90
54930;DHT22;40833;53.238;6.576;2023-09-19T02:01:58;13.00;99.90
54930;DHT22;40833;53.238;6.576;2023-09-19T02:04:23;13.00;99.90
54930;DHT22;40833;53.238;6.576;2023-09-19T02:06:49;12.90;99.90
54930;DHT22;40833;53.238;6.576;2023-09-19T02:09:15;13.00;99.90
54930;DHT22;40833;53.238;6.576;2023-09-19T02:11:41;12.90;99.90
54930;DHT22;40833;53.238;6.576;2023-09-19T02:14:07;12.80;99.90
54930;DHT22;40833;53.238;6.576;2023-09-19T02:16:34;12.80;99.90
54930;DHT22;40833;53.238;6.576;2023-09-19T02:19:00;12.80;99.90
54930;DHT22;40833;53.238;6.576;2023-09-19T02:21:26;12.70;99.90
54930;DHT22;40833;53.238;6.576;2023-09-19T02:23:55;12.70;99.90
54930;DHT22;40833;53.238;6.576;2023-09-19T02:26:21;12.70;99.90
54930;DHT22;40833;53.238;6.576;2023-09-19T02:28:47;12.70;99.90
54930;DHT22;40833;53.238;6.576;2023-09-19T02:31:13;12.60;99.90
54930;DHT22;40833;53.238;6.576;2023-09-19T02:33:38;12.60;99.90
54930;DHT22;40833;53.238;6.576;2023-09-19T02:36:04;12.60;99.90
54930;DHT22;40833;53.238;6.576;2023-09-19T02:38:30;12.60;99.90
54930;DHT22;40833;53.238;6.576;2023-09-19T02:40:56;12.60;99.90
54930;DHT22;40833;53.238;6.576;2023-09-19T02:43:22;12.60;99.90
54930;DHT22;40833;53.238;6.576;2023-09-19T02:45:49;12.50;99.90
54930;DHT22;40833;53.238;6.576;2023-09-19T02:48:16;12.50;99.90
54930;DHT22;40833;53.238;6.576;2023-09-19T02:50:42;12.50;99.90
54930;DHT22;40833;53.238;6.576;2023-09-19T02:53:08;12.50;99.90
54930;DHT22;40833;53.238;6.576;2023-09-19T02:55:38;12.50;99.90
54930;DHT22;40833;53.238;6.576;2023-09-19T02:58:06;12.60;99.90
54930;DHT22;40833;53.238;6.576;2023-09-19T03:00:33;12.60;99.90
54930;DHT22;40833;53.238;6.576;2023-09-19T03:02:59;12.60;99.90
54930;DHT22;40833;53.238;6.576;2023-09-19T03:05:25;12.60;99.90
54930;DHT22;40833;53.238;6.576;2023-09-19T03:07:52;12.60;99.90
54930;DHT22;40833;53.238;6.576;2023-09-19T03:10:18;12.60;99.90
54930;DHT22;40833;53.238;6.576;2023-09-19T03:12:45;12.60;99.90
54930;DHT22;40833;53.238;6.576;2023-09-19T03:15:11;12.60;99.90
54930;DHT22;40833;53.238;6.576;2023-09-19T03:17:37;12.70;99.90
54930;DHT22;40833;53.238;6.576;2023-09-19T03:20:03;12.60;99.90
54930;DHT22;40833;53.238;6.576;2023-09-19T03:22:30;12.60;99.90
54930;DHT22;40833;53.238;6.576;2023-09-19T03:24:55;12.60;99.90
54930;DHT22;40833;53.238;6.576;2023-09-19T03:27:21;12.60;99.90
54930;DHT22;40833;53.238;6.576;2023-09-19T03:29:47;12.60;99.90
54930;DHT22;40833;53.238;6.576;2023-09-19T03:32:13;12.60;99.90
54930;DHT22;40833;53.238;6.576;2023-09-19T03:34:39;12.60;99.90
54930;DHT22;40833;53.238;6.576;2023-09-19T03:37:12;12.60;99.90
54930;DHT22;40833;53.238;6.576;2023-09-19T03:39:37;12.50;99.90
54930;DHT22;40833;53.238;6.576;2023-09-19T03:42:03;12.50;99.90
54930;DHT22;40833;53.238;6.576;2023-09-19T03:44:30;12.60;99.90
54930;DHT22;40833;53.238;6.576;2023-09-19T03:46:56;12.70;99.90
54930;DHT22;40833;53.238;6.576;2023-09-19T03:49:23;12.60;99.90
54930;DHT22;40833;53.238;6.576;2023-09-19T03:51:48;12.50;99.90
54930;DHT22;40833;53.238;6.576;2023-09-19T03:54:14;12.50;99.90
54930;DHT22;40833;53.238;6.576;2023-09-19T03:56:40;12.50;99.90
54930;DHT22;40833;53.238;6.576;2023-09-19T03:59:05;12.50;99.90
54930;DHT22;40833;53.238;6.576;2023-09-19T04:01:31;12.50;99.90
54930;DHT22;40833;53.238;6.576;2023-09-19T04:03:58;12.50;99.90
54930;DHT22;40833;53.238;6.576;2023-09-19T04:06:24;12.50;99.90
54930;DHT22;40833;53.238;6.576;2023-09-19T04:08:49;12.50;99.90
54930;DHT22;40833;53.238;6.576;2023-09-19T04:11:15;12.50;99.90
54930;DHT22;40833;53.238;6.576;2023-09-19T04:13:41;12.50;99.90
54930;DHT22;40833;53.238;6.576;2023-09-19T04:16:06;12.50;99.90
54930;DHT22;40833;53.238;6.576;2023-09-19T04:18:32;12.50;99.90
54930;DHT22;40833;53.238;6.576;2023-09-19T04:21:02;12.60;99.90
54930;DHT22;40833;53.238;6.576;2023-09-19T04:23:29;12.60;99.90
54930;DHT22;40833;53.238;6.576;2023-09-19T04:25:56;12.60;99.90
54930;DHT22;40833;53.238;6.576;2023-09-19T04:28:22;12.60;99.90
54930;DHT22;40833;53.238;6.576;2023-09-19T04:30:49;12.70;99.90
54930;DHT22;40833;53.238;6.576;2023-09-19T04:33:15;12.60;99.90
54930;DHT22;40833;53.238;6.576;2023-09-19T04:35:41;12.70;99.90
54930;DHT22;40833;53.238;6.576;2023-09-19T04:38:08;12.70;99.90
54930;DHT22;40833;53.238;6.576;2023-09-19T04:40:33;12.70;99.90
54930;DHT22;40833;53.238;6.576;2023-09-19T04:42:59;12.70;99.90
54930;DHT22;40833;53.238;6.576;2023-09-19T04:45:26;12.70;99.90
54930;DHT22;40833;53.238;6.576;2023-09-19T04:47:52;12.70;99.90
54930;DHT22;40833;53.238;6.576;2023-09-19T04:50:19;12.70;99.90
54930;DHT22;40833;53.238;6.576;2023-09-19T04:52:49;12.70;99.90
54930;DHT22;40833;53.238;6.576;2023-09-19T04:55:17;12.70;99.90
54930;DHT22;40833;53.238;6.576;2023-09-19T04:57:50;12.70;99.90
54930;DHT22;40833;53.238;6.576;2023-09-19T05:00:17;12.70;99.90
54930;DHT22;40833;53.238;6.576;2023-09-19T05:02:49;12.70;99.90
54930;DHT22;40833;53.238;6.576;2023-09-19T05:05:15;12.70;99.90
54930;DHT22;40833;53.238;6.576;2023-09-19T05:07:42;12.70;99.90
54930;DHT22;40833;53.238;6.576;2023-09-19T05:10:09;12.70;99.90
54930;DHT22;40833;53.238;6.576;2023-09-19T05:12:37;12.70;99.90
54930;DHT22;40833;53.238;6.576;2023-09-19T05:15:03;12.70;99.90
54930;DHT22;40833;53.238;6.576;2023-09-19T05:17:30;12.80;99.90
54930;DHT22;40833;53.238;6.576;2023-09-19T05:19:57;12.80;99.90
54930;DHT22;40833;53.238;6.576;2023-09-19T05:22:39;12.80;99.90
54930;DHT22;40833;53.238;6.576;2023-09-19T05:25:06;12.80;99.90
54930;DHT22;40833;53.238;6.576;2023-09-19T05:27:32;12.80;99.90
54930;DHT22;40833;53.238;6.576;2023-09-19T05:29:59;12.80;99.90
54930;DHT22;40833;53.238;6.576;2023-09-19T05:32:25;12.90;99.90
54930;DHT22;40833;53.238;6.576;2023-09-19T05:34:51;12.90;99.90
54930;DHT22;40833;53.238;6.576;2023-09-19T05:37:21;12.90;99.90
54930;DHT22;40833;53.238;6.576;2023-09-19T05:39:49;12.90;99.90
54930;DHT22;40833;53.238;6.576;2023-09-19T05:42:14;12.90;99.90
54930;DHT22;40833;53.238;6.576;2023-09-19T05:44:40;12.90;99.90
54930;DHT22;40833;53.238;6.576;2023-09-19T05:47:06;12.90;99.90
54930;DHT22;40833;53.238;6.576;2023-09-19T05:49:35;13.00;99.90
54930;DHT22;40833;53.238;6.576;2023-09-19T05:52:07;13.00;99.90
54930;DHT22;40833;53.238;6.576;2023-09-19T05:54:33;13.00;99.90
54930;DHT22;40833;53.238;6.576;2023-09-19T05:57:02;13.00;99.90
54930;DHT22;40833;53.238;6.576;2023-09-19T05:59:28;13.10;99.90
54930;DHT22;40833;53.238;6.576;2023-09-19T06:01:54;13.10;99.90
54930;DHT22;40833;53.238;6.576;2023-09-19T06:04:20;13.10;99.90
54930;DHT22;40833;53.238;6.576;2023-09-19T06:06:46;13.10;99.90
54930;DHT22;40833;53.238;6.576;2023-09-19T06:09:14;13.10;99.90
54930;DHT22;40833;53.238;6.576;2023-09-19T06:11:43;13.20;99.90
54930;DHT22;40833;53.238;6.576;2023-09-19T06:14:08;13.30;99.90
54930;DHT22;40833;53.238;6.576;2023-09-19T06:16:35;13.20;99.90
54930;DHT22;40833;53.238;6.576;2023-09-19T06:19:03;13.30;99.90
54930;DHT22;40833;53.238;6.576;2023-09-19T06:21:32;13.30;99.90
54930;DHT22;40833;53.238;6.576;2023-09-19T06:23:57;13.40;99.90
54930;DHT22;40833;53.238;6.576;2023-09-19T06:26:24;13.40;99.90
54930;DHT22;40833;53.238;6.576;2023-09-19T06:28:52;13.40;99.90
54930;DHT22;40833;53.238;6.576;2023-09-19T06:31:18;13.40;99.90
54930;DHT22;40833;53.238;6.576;2023-09-19T06:33:43;13.50;99.90
54930;DHT22;40833;53.238;6.576;2023-09-19T06:36:09;13.50;99.90
54930;DHT22;40833;53.238;6.576;2023-09-19T06:38:36;13.60;99.90
54930;DHT22;40833;53.238;6.576;2023-09-19T06:41:04;13.60;99.90
54930;DHT22;40833;53.238;6.576;2023-09-19T06:43:34;13.70;99.90
54930;DHT22;40833;53.238;6.576;2023-09-19T06:46:03;13.70;99.90
54930;DHT22;40833;53.238;6.576;2023-09-19T06:48:29;13.80;99.90
54930;DHT22;40833;53.238;6.576;2023-09-19T06:50:56;13.80;99.90
54930;DHT22;40833;53.238;6.576;2023-09-19T06:53:24;13.90;99.90
54930;DHT22;40833;53.238;6.576;2023-09-19T06:55:52;13.90;99.90
54930;DHT22;40833;53.238;6.576;2023-09-19T06:58:19;14.00;99.90
54930;DHT22;40833;53.238;6.576;2023-09-19T07:00:45;14.10;99.90
54930;DHT22;40833;53.238;6.576;2023-09-19T07:03:14;14.10;99.90
54930;DHT22;40833;53.238;6.576;2023-09-19T07:05:41;14.10;99.90
54930;DHT22;40833;53.238;6.576;2023-09-19T07:08:09;14.10;99.90
54930;DHT22;40833;53.238;6.576;2023-09-19T07:10:38;14.20;99.90
54930;DHT22;40833;53.238;6.576;2023-09-19T07:13:07;14.30;99.90
54930;DHT22;40833;53.238;6.576;2023-09-19T07:15:37;14.30;99.90
54930;DHT22;40833;53.238;6.576;2023-09-19T07:18:12;14.40;99.90
54930;DHT22;40833;53.238;6.576;2023-09-19T07:20:40;14.40;99.90
54930;DHT22;40833;53.238;6.576;2023-09-19T07:23:11;14.50;99.90
54930;DHT22;40833;53.238;6.576;2023-09-19T07:25:39;14.50;99.90
54930;DHT22;40833;53.238;6.576;2023-09-19T07:28:05;14.50;99.90
54930;DHT22;40833;53.238;6.576;2023-09-19T07:30:31;14.50;99.90
54930;DHT22;40833;53.238;6.576;2023-09-19T07:32:57;14.50;99.90
54930;DHT22;40833;53.238;6.576;2023-09-19T07:35:22;14.60;99.90
54930;DHT22;40833;53.238;6.576;2023-09-19T07:37:49;14.50;99.90
54930;DHT22;40833;53.238;6.576;2023-09-19T07:40:18;14.50;99.90
54930;DHT22;40833;53.238;6.576;2023-09-19T07:42:44;14.60;99.90
54930;DHT22;40833;53.238;6.576;2023-09-19T07:45:12;14.60;99.90
54930;DHT22;40833;53.238;6.576;2023-09-19T07:47:44;14.70;99.90
54930;DHT22;40833;53.238;6.576;2023-09-19T07:50:11;14.70;99.90
54930;DHT22;40833;53.238;6.576;2023-09-19T07:52:37;14.80;99.90
54930;DHT22;40833;53.238;6.576;2023-09-19T07:55:06;14.80;99.90
54930;DHT22;40833;53.238;6.576;2023-09-19T07:57:35;14.80;99.90
54930;DHT22;40833;53.238;6.576;2023-09-19T08:00:03;14.90;99.90
54930;DHT22;40833;53.238;6.576;2023-09-19T08:02:36;14.90;99.90
54930;DHT22;40833;53.238;6.576;2023-09-19T08:05:06;14.90;99.90
54930;DHT22;40833;53.238;6.576;2023-09-19T08:07:35;14.80;99.90
54930;DHT22;40833;53.238;6.576;2023-09-19T08:10:02;14.80;99.90
54930;DHT22;40833;53.238;6.576;2023-09-19T08:12:29;14.80;99.90
54930;DHT22;40833;53.238;6.576;2023-09-19T08:14:55;14.80;99.90
54930;DHT22;40833;53.238;6.576;2023-09-19T08:17:21;14.90;99.90
54930;DHT22;40833;53.238;6.576;2023-09-19T08:19:48;15.00;99.90
54930;DHT22;40833;53.238;6.576;2023-09-19T08:22:19;15.20;99.90
54930;DHT22;40833;53.238;6.576;2023-09-19T08:24:45;15.30;99.90
54930;DHT22;40833;53.238;6.576;2023-09-19T08:27:11;15.40;99.90
54930;DHT22;40833;53.238;6.576;2023-09-19T08:29:38;15.50;99.90
54930;DHT22;40833;53.238;6.576;2023-09-19T08:32:04;15.50;99.90
54930;DHT22;40833;53.238;6.576;2023-09-19T08:34:30;15.60;99.90
54930;DHT22;40833;53.238;6.576;2023-09-19T08:36:58;15.60;99.90
54930;DHT22;40833;53.238;6.576;2023-09-19T08:39:25;15.70;99.90
54930;DHT22;40833;53.238;6.576;2023-09-19T08:41:58;15.70;99.90
54930;DHT22;40833;53.238;6.576;2023-09-19T08:44:24;15.90;99.90
54930;DHT22;40833;53.238;6.576;2023-09-19T08:46:55;15.90;99.90
54930;DHT22;40833;53.238;6.576;2023-09-19T08:49:59;16.00;99.90
54930;DHT22;40833;53.238;6.576;2023-09-19T08:52:39;16.10;99.90
54930;DHT22;40833;53.238;6.576;2023-09-19T08:55:06;16.10;99.90
54930;DHT22;40833;53.238;6.576;2023-09-19T08:57:36;16.10;99.90
54930;DHT22;40833;53.238;6.576;2023-09-19T09:00:05;16.10;99.90
54930;DHT22;40833;53.238;6.576;2023-09-19T09:02:40;16.10;99.90
54930;DHT22;40833;53.238;6.576;2023-09-19T09:05:10;16.10;99.90
54930;DHT22;40833;53.238;6.576;2023-09-19T09:07:37;16.20;99.90
54930;DHT22;40833;53.238;6.576;2023-09-19T09:10:04;16.20;99.90
54930;DHT22;40833;53.238;6.576;2023-09-19T09:12:30;16.20;99.90
54930;DHT22;40833;53.238;6.576;2023-09-19T09:14:56;16.30;99.90
54930;DHT22;40833;53.238;6.576;2023-09-19T09:17:26;16.30;99.90
54930;DHT22;40833;53.238;6.576;2023-09-19T09:19:55;16.30;99.90
54930;DHT22;40833;53.238;6.576;2023-09-19T09:22:21;16.40;99.90
54930;DHT22;40833;53.238;6.576;2023-09-19T09:24:54;16.50;99.90
54930;DHT22;40833;53.238;6.576;2023-09-19T09:27:23;16.50;99.90
54930;DHT22;40833;53.238;6.576;2023-09-19T09:29:51;16.50;99.90
54930;DHT22;40833;53.238;6.576;2023-09-19T09:32:28;16.60;99.90
54930;DHT22;40833;53.238;6.576;2023-09-19T09:34:57;16.60;99.90
54930;DHT22;40833;53.238;6.576;2023-09-19T09:37:25;16.50;99.90
54930;DHT22;40833;53.238;6.576;2023-09-19T09:40:00;16.60;99.90
54930;DHT22;40833;53.238;6.576;2023-09-19T09:42:45;16.60;99.90
54930;DHT22;40833;53.238;6.576;2023-09-19T09:45:21;16.70;99.90
54930;DHT22;40833;53.238;6.576;2023-09-19T09:48:03;16.80;99.90
54930;DHT22;40833;53.238;6.576;2023-09-19T09:50:33;16.70;99.90
54930;DHT22;40833;53.238;6.576;2023-09-19T09:53:24;16.70;99.90
54930;DHT22;40833;53.238;6.576;2023-09-19T09:58:25;17.00;99.90
54930;DHT22;40833;53.238;6.576;2023-09-19T10:00:58;17.10;99.90
54930;DHT22;40833;53.238;6.576;2023-09-19T10:03:40;17.20;99.90
54930;DHT22;40833;53.238;6.576;2023-09-19T10:06:16;17.40;99.90
54930;DHT22;40833;53.238;6.576;2023-09-19T10:09:08;17.50;99.90
54930;DHT22;40833;53.238;6.576;2023-09-19T10:12:05;17.70;99.90
54930;DHT22;40833;53.238;6.576;2023-09-19T10:14:37;17.70;99.90
54930;DHT22;40833;53.238;6.576;2023-09-19T10:17:05;17.80;99.90
54930;DHT22;40833;53.238;6.576;2023-09-19T10:19:54;18.00;99.90
54930;DHT22;40833;53.238;6.576;2023-09-19T10:22:23;18.00;99.90
54930;DHT22;40833;53.238;6.576;2023-09-19T10:24:50;18.10;99.90
54930;DHT22;40833;53.238;6.576;2023-09-19T10:27:19;18.10;99.90
54930;DHT22;40833;53.238;6.576;2023-09-19T10:29:49;18.10;99.90
54930;DHT22;40833;53.238;6.576;2023-09-19T10:32:16;18.20;99.90
54930;DHT22;40833;53.238;6.576;2023-09-19T10:34:46;18.20;99.90
54930;DHT22;40833;53.238;6.576;2023-09-19T10:37:13;18.20;99.90
54930;DHT22;40833;53.238;6.576;2023-09-19T10:39:46;18.20;99.90
54930;DHT22;40833;53.238;6.576;2023-09-19T10:42:17;18.10;99.90
54930;DHT22;40833;53.238;6.576;2023-09-19T10:44:45;18.10;99.90
54930;DHT22;40833;53.238;6.576;2023-09-19T10:47:13;18.10;99.90
54930;DHT22;40833;53.238;6.576;2023-09-19T10:49:44;18.10;99.90
54930;DHT22;40833;53.238;6.576;2023-09-19T10:52:11;18.20;99.90
54930;DHT22;40833;53.238;6.576;2023-09-19T10:54:46;18.30;99.90
54930;DHT22;40833;53.238;6.576;2023-09-19T10:57:21;18.30;99.90
54930;DHT22;40833;53.238;6.576;2023-09-19T11:00:08;18.30;99.90
54930;DHT22;40833;53.238;6.576;2023-09-19T11:06:09;18.20;99.90
54930;DHT22;40833;53.238;6.576;2023-09-19T11:09:01;18.30;99.90
54930;DHT22;40833;53.238;6.576;2023-09-19T11:30:48;18.50;99.90
54930;DHT22;40833;53.238;6.576;2023-09-19T11:36:11;18.50;99.90
54930;DHT22;40833;53.238;6.576;2023-09-19T11:46:24;18.90;99.90
54930;DHT22;40833;53.238;6.576;2023-09-19T11:48:51;19.00;99.90
54930;DHT22;40833;53.238;6.576;2023-09-19T11:51:24;19.00;99.90
54930;DHT22;40833;53.238;6.576;2023-09-19T11:53:55;19.00;99.90
54930;DHT22;40833;53.238;6.576;2023-09-19T11:56:23;18.90;99.90
54930;DHT22;40833;53.238;6.576;2023-09-19T11:58:51;18.90;99.90
54930;DHT22;40833;53.238;6.576;2023-09-19T12:01:30;18.90;99.90
54930;DHT22;40833;53.238;6.576;2023-09-19T12:03:58;18.90;99.90
54930;DHT22;40833;53.238;6.576;2023-09-19T12:06:28;18.90;99.90
54930;DHT22;40833;53.238;6.576;2023-09-19T12:08:55;18.80;99.90
54930;DHT22;40833;53.238;6.576;2023-09-19T12:11:23;18.60;99.90
54930;DHT22;40833;53.238;6.576;2023-09-19T12:13:49;18.50;99.90
54930;DHT22;40833;53.238;6.576;2023-09-19T12:16:20;18.40;99.90
54930;DHT22;40833;53.238;6.576;2023-09-19T12:18:50;18.30;99.90
54930;DHT22;40833;53.238;6.576;2023-09-19T12:21:25;18.30;99.90
54930;DHT22;40833;53.238;6.576;2023-09-19T12:23:59;18.20;99.90
54930;DHT22;40833;53.238;6.576;2023-09-19T12:26:27;18.20;99.90
54930;DHT22;40833;53.238;6.576;2023-09-19T12:28:55;18.20;99.90
54930;DHT22;40833;53.238;6.576;2023-09-19T12:31:21;18.20;99.90
54930;DHT22;40833;53.238;6.576;2023-09-19T12:33:55;18.10;99.90
54930;DHT22;40833;53.238;6.576;2023-09-19T12:36:23;18.00;99.90
54930;DHT22;40833;53.238;6.576;2023-09-19T12:38:55;17.90;99.90
54930;DHT22;40833;53.238;6.576;2023-09-19T12:41:25;17.70;99.90
54930;DHT22;40833;53.238;6.576;2023-09-19T12:43:55;17.60;99.90
54930;DHT22;40833;53.238;6.576;2023-09-19T12:46:24;17.70;99.90
54930;DHT22;40833;53.238;6.576;2023-09-19T12:49:19;17.80;99.90
54930;DHT22;40833;53.238;6.576;2023-09-19T12:51:46;17.80;99.90
54930;DHT22;40833;53.238;6.576;2023-09-19T12:54:13;18.00;99.90
54930;DHT22;40833;53.238;6.576;2023-09-19T12:56:45;18.10;99.90
54930;DHT22;40833;53.238;6.576;2023-09-19T12:59:14;18.20;99.90
54930;DHT22;40833;53.238;6.576;2023-09-19T13:01:41;18.20;99.90
54930;DHT22;40833;53.238;6.576;2023-09-19T13:04:19;18.30;99.90
54930;DHT22;40833;53.238;6.576;2023-09-19T13:06:49;18.30;99.90
54930;DHT22;40833;53.238;6.576;2023-09-19T13:09:20;18.20;99.90
54930;DHT22;40833;53.238;6.576;2023-09-19T13:11:46;18.10;99.90
54930;DHT22;40833;53.238;6.576;2023-09-19T13:14:14;18.10;99.90
54930;DHT22;40833;53.238;6.576;2023-09-19T13:16:57;18.00;99.90
54930;DHT22;40833;53.238;6.576;2023-09-19T13:19:47;18.00;99.90
54930;DHT22;40833;53.238;6.576;2023-09-19T13:22:43;18.10;99.90
54930;DHT22;40833;53.238;6.576;2023-09-19T13:25:15;18.10;99.90
54930;DHT22;40833;53.238;6.576;2023-09-19T13:27:57;18.00;99.90
54930;DHT22;40833;53.238;6.576;2023-09-19T13:30:24;17.90;99.90
54930;DHT22;40833;53.238;6.576;2023-09-19T13:33:10;17.70;99.90
54930;DHT22;40833;53.238;6.576;2023-09-19T13:35:38;17.50;99.90
54930;DHT22;40833;53.238;6.576;2023-09-19T13:38:05;17.40;99.90
54930;DHT22;40833;53.238;6.576;2023-09-19T13:40:35;17.40;99.90
54930;DHT22;40833;53.238;6.576;2023-09-19T13:43:01;17.40;99.90
54930;DHT22;40833;53.238;6.576;2023-09-19T13:45:27;17.40;99.90
54930;DHT22;40833;53.238;6.576;2023-09-19T13:47:56;17.50;99.90
54930;DHT22;40833;53.238;6.576;2023-09-19T13:50:21;17.50;99.90
54930;DHT22;40833;53.238;6.576;2023-09-19T13:52:50;17.60;99.90
54930;DHT22;40833;53.238;6.576;2023-09-19T13:55:19;17.70;99.90
54930;DHT22;40833;53.238;6.576;2023-09-19T13:57:48;17.70;99.90
54930;DHT22;40833;53.238;6.576;2023-09-19T14:00:20;17.80;99.90
54930;DHT22;40833;53.238;6.576;2023-09-19T14:02:45;17.90;99.90
54930;DHT22;40833;53.238;6.576;2023-09-19T14:05:13;18.00;99.90
54930;DHT22;40833;53.238;6.576;2023-09-19T14:07:41;18.10;99.90
54930;DHT22;40833;53.238;6.576;2023-09-19T14:10:07;18.10;99.90
54930;DHT22;40833;53.238;6.576;2023-09-19T14:12:37;18.20;99.90
54930;DHT22;40833;53.238;6.576;2023-09-19T14:15:07;18.10;99.90
54930;DHT22;40833;53.238;6.576;2023-09-19T14:17:33;18.10;99.90
54930;DHT22;40833;53.238;6.576;2023-09-19T14:19:59;18.10;99.90
54930;DHT22;40833;53.238;6.576;2023-09-19T14:22:25;18.30;99.90
54930;DHT22;40833;53.238;6.576;2023-09-19T14:24:50;18.30;99.90
54930;DHT22;40833;53.238;6.576;2023-09-19T14:27:17;18.30;99.90
54930;DHT22;40833;53.238;6.576;2023-09-19T14:29:43;19.70;99.90
54930;DHT22;40833;53.238;6.576;2023-09-19T14:32:08;18.40;99.90
54930;DHT22;40833;53.238;6.576;2023-09-19T14:34:34;18.40;99.90
54930;DHT22;40833;53.238;6.576;2023-09-19T14:37:02;18.40;99.90
54930;DHT22;40833;53.238;6.576;2023-09-19T14:39:29;18.40;99.90
54930;DHT22;40833;53.238;6.576;2023-09-19T14:41:55;18.40;99.90
54930;DHT22;40833;53.238;6.576;2023-09-19T14:44:20;18.40;99.90
54930;DHT22;40833;53.238;6.576;2023-09-19T14:46:46;18.40;99.90
54930;DHT22;40833;53.238;6.576;2023-09-19T14:49:12;18.40;99.90
54930;DHT22;40833;53.238;6.576;2023-09-19T14:51:38;18.40;99.90
54930;DHT22;40833;53.238;6.576;2023-09-19T14:54:09;18.30;99.90
54930;DHT22;40833;53.238;6.576;2023-09-19T14:56:35;18.20;99.90
54930;DHT22;40833;53.238;6.576;2023-09-19T14:59:00;18.10;99.90
54930;DHT22;40833;53.238;6.576;2023-09-19T15:01:27;18.10;99.90
54930;DHT22;40833;53.238;6.576;2023-09-19T15:03:53;18.00;99.90
54930;DHT22;40833;53.238;6.576;2023-09-19T15:06:21;18.00;99.90
54930;DHT22;40833;53.238;6.576;2023-09-19T15:08:47;17.90;99.90
54930;DHT22;40833;53.238;6.576;2023-09-19T15:11:17;17.80;99.90
54930;DHT22;40833;53.238;6.576;2023-09-19T15:13:44;17.80;99.90
54930;DHT22;40833;53.238;6.576;2023-09-19T15:16:10;17.70;99.90
54930;DHT22;40833;53.238;6.576;2023-09-19T15:18:44;17.70;99.90
54930;DHT22;40833;53.238;6.576;2023-09-19T15:21:13;17.60;99.90
54930;DHT22;40833;53.238;6.576;2023-09-19T15:23:41;17.60;99.90
54930;DHT22;40833;53.238;6.576;2023-09-19T15:26:08;17.60;99.90
54930;DHT22;40833;53.238;6.576;2023-09-19T15:28:34;17.50;99.90
54930;DHT22;40833;53.238;6.576;2023-09-19T15:31:20;17.50;99.90
54930;DHT22;40833;53.238;6.576;2023-09-19T15:33:46;17.40;99.90
54930;DHT22;40833;53.238;6.576;2023-09-19T15:36:13;17.30;99.90
54930;DHT22;40833;53.238;6.576;2023-09-19T15:38:58;17.20;99.90
54930;DHT22;40833;53.238;6.576;2023-09-19T15:41:25;17.20;99.90
54930;DHT22;40833;53.238;6.576;2023-09-19T15:43:51;17.10;99.90
54930;DHT22;40833;53.238;6.576;2023-09-19T15:46:17;17.00;99.90
54930;DHT22;40833;53.238;6.576;2023-09-19T15:48:43;17.00;99.90
54930;DHT22;40833;53.238;6.576;2023-09-19T15:51:10;16.90;99.90
54930;DHT22;40833;53.238;6.576;2023-09-19T15:53:50;16.90;99.90
54930;DHT22;40833;53.238;6.576;2023-09-19T15:56:20;16.90;99.90
54930;DHT22;40833;53.238;6.576;2023-09-19T15:58:47;16.90;99.90
54930;DHT22;40833;53.238;6.576;2023-09-19T16:01:14;16.90;99.90
54930;DHT22;40833;53.238;6.576;2023-09-19T16:03:43;16.90;99.90
54930;DHT22;40833;53.238;6.576;2023-09-19T16:06:10;16.90;99.90
54930;DHT22;40833;53.238;6.576;2023-09-19T16:08:44;16.90;99.90
54930;DHT22;40833;53.238;6.576;2023-09-19T16:11:11;16.90;99.90
54930;DHT22;40833;53.238;6.576;2023-09-19T16:13:38;16.90;99.90
54930;DHT22;40833;53.238;6.576;2023-09-19T16:16:04;16.90;99.90
54930;DHT22;40833;53.238;6.576;2023-09-19T16:18:30;16.90;99.90
54930;DHT22;40833;53.238;6.576;2023-09-19T16:21:03;17.00;99.90
54930;DHT22;40833;53.238;6.576;2023-09-19T16:23:29;17.00;99.90
54930;DHT22;40833;53.238;6.576;2023-09-19T16:26:07;16.90;99.90
54930;DHT22;40833;53.238;6.576;2023-09-19T16:28:39;16.90;99.90
54930;DHT22;40833;53.238;6.576;2023-09-19T16:31:06;16.90;99.90
54930;DHT22;40833;53.238;6.576;2023-09-19T16:33:36;16.90;99.90
54930;DHT22;40833;53.238;6.576;2023-09-19T16:36:12;16.90;99.90